sensor_id;sensor_type;location;lat;lon;timestamp;temperature;humidity
18876;DHT22;9570;50.854;13.778;2023-09-19T00:01:06;16.60;99.90
18876;DHT22;9570;50.854;13.778;2023-09-19T00:03:36;16.70;99.90
18876;DHT22;9570;50.854;13.778;2023-09-19T00:06:03;16.70;99.90
18876;DHT22;9570;50.854;13.778;2023-09-19T00:08:30;16.80;99.90
18876;DHT22;9570;50.854;13.778;2023-09-19T00:10:56;16.60;99.90
18876;DHT22;9570;50.854;13.778;2023-09-19T00:13:21;16.70;99.90
18876;DHT22;9570;50.854;13.778;2023-09-19T00:15:48;16.70;99.90
18876;DHT22;9570;50.854;13.778;2023-09-19T00:18:14;16.70;99.90
18876;DHT22;9570;50.854;13.778;2023-09-19T00:20:41;16.80;99.90
18876;DHT22;9570;50.854;13.778;2023-09-19T00:23:07;16.80;99.90
18876;DHT22;9570;50.854;13.778;2023-09-19T00:25:36;16.90;99.90
18876;DHT22;9570;50.854;13.778;2023-09-19T00:28:03;17.00;99.90
18876;DHT22;9570;50.854;13.778;2023-09-19T00:30:29;17.00;99.90
18876;DHT22;9570;50.854;13.778;2023-09-19T00:32:55;16.90;99.90
18876;DHT22;9570;50.854;13.778;2023-09-19T00:35:21;17.00;99.90
18876;DHT22;9570;50.854;13.778;2023-09-19T00:37:49;17.10;99.90
18876;DHT22;9570;50.854;13.778;2023-09-19T00:40:14;17.10;99.90
18876;DHT22;9570;50.854;13.778;2023-09-19T00:42:46;17.10;99.90
18876;DHT22;9570;50.854;13.778;2023-09-19T00:45:14;17.10;99.90
18876;DHT22;9570;50.854;13.778;2023-09-19T00:47:42;17.10;99.90
18876;DHT22;9570;50.854;13.778;2023-09-19T00:50:08;17.00;99.90
18876;DHT22;9570;50.854;13.778;2023-09-19T00:52:36;17.00;99.90
18876;DHT22;9570;50.854;13.778;2023-09-19T00:55:08;17.10;99.90
18876;DHT22;9570;50.854;13.778;2023-09-19T00:57:36;17.10;99.90
18876;DHT22;9570;50.854;13.778;2023-09-19T01:00:04;17.10;99.90
18876;DHT22;9570;50.854;13.778;2023-09-19T01:02:32;17.10;99.90
18876;DHT22;9570;50.854;13.778;2023-09-19T01:04:58;16.90;99.90
18876;DHT22;9570;50.854;13.778;2023-09-19T01:07:24;17.00;99.90
18876;DHT22;9570;50.854;13.778;2023-09-19T01:09:50;16.90;99.90
18876;DHT22;9570;50.854;13.778;2023-09-19T01:12:20;16.90;99.90
18876;DHT22;9570;50.854;13.778;2023-09-19T01:14:57;16.80;99.90
18876;DHT22;9570;50.854;13.778;2023-09-19T01:17:45;16.90;99.90
18876;DHT22;9570;50.854;13.778;2023-09-19T01:20:27;16.80;99.90
18876;DHT22;9570;50.854;13.778;2023-09-19T01:25:42;16.60;99.90
18876;DHT22;9570;50.854;13.778;2023-09-19T01:28:29;16.60;99.90
18876;DHT22;9570;50.854;13.778;2023-09-19T01:30:59;16.60;99.90
18876;DHT22;9570;50.854;13.778;2023-09-19T01:33:27;16.70;99.90
18876;DHT22;9570;50.854;13.778;2023-09-19T01:35:52;16.80;99.90
18876;DHT22;9570;50.854;13.778;2023-09-19T01:38:23;16.80;99.90
18876;DHT22;9570;50.854;13.778;2023-09-19T01:40:59;16.90;99.90
18876;DHT22;9570;50.854;13.778;2023-09-19T01:43:37;17.00;99.90
18876;DHT22;9570;50.854;13.778;2023-09-19T01:46:13;17.00;99.90
18876;DHT22;9570;50.854;13.778;2023-09-19T01:48:59;17.10;99.90
18876;DHT22;9570;50.854;13.778;2023-09-19T01:52:12;17.20;99.90
18876;DHT22;9570;50.854;13.778;2023-09-19T01:54:52;17.30;99.90
18876;DHT22;9570;50.854;13.778;2023-09-19T01:57:32;17.30;99.90
18876;DHT22;9570;50.854;13.778;2023-09-19T02:00:03;17.20;99.90
18876;DHT22;9570;50.854;13.778;2023-09-19T02:02:35;17.10;99.90
18876;DHT22;9570;50.854;13.778;2023-09-19T02:05:02;17.20;99.90
18876;DHT22;9570;50.854;13.778;2023-09-19T02:07:29;17.20;99.90
18876;DHT22;9570;50.854;13.778;2023-09-19T02:09:57;17.20;99.90
18876;DHT22;9570;50.854;13.778;2023-09-19T02:12:24;17.30;99.90
18876;DHT22;9570;50.854;13.778;2023-09-19T02:14:50;17.40;99.90
18876;DHT22;9570;50.854;13.778;2023-09-19T02:17:15;17.30;99.90
18876;DHT22;9570;50.854;13.778;2023-09-19T02:19:41;17.30;99.90
18876;DHT22;9570;50.854;13.778;2023-09-19T02:22:07;17.30;99.90
18876;DHT22;9570;50.854;13.778;2023-09-19T02:24:33;17.20;99.90
18876;DHT22;9570;50.854;13.778;2023-09-19T02:26:59;17.20;99.90
18876;DHT22;9570;50.854;13.778;2023-09-19T02:29:29;17.30;99.90
18876;DHT22;9570;50.854;13.778;2023-09-19T02:31:55;17.30;99.90
18876;DHT22;9570;50.854;13.778;2023-09-19T02:34:21;17.40;99.90
18876;DHT22;9570;50.854;13.778;2023-09-19T02:36:47;17.40;99.90
18876;DHT22;9570;50.854;13.778;2023-09-19T02:39:13;17.40;99.90
18876;DHT22;9570;50.854;13.778;2023-09-19T02:41:38;17.40;99.90
18876;DHT22;9570;50.854;13.778;2023-09-19T02:44:04;17.40;99.90
18876;DHT22;9570;50.854;13.778;2023-09-19T02:46:33;17.40;99.90
18876;DHT22;9570;50.854;13.778;2023-09-19T02:48:59;17.40;99.90
18876;DHT22;9570;50.854;13.778;2023-09-19T02:51:24;17.30;99.90
18876;DHT22;9570;50.854;13.778;2023-09-19T02:53:50;17.30;99.90
18876;DHT22;9570;50.854;13.778;2023-09-19T02:56:20;17.20;99.90
18876;DHT22;9570;50.854;13.778;2023-09-19T02:58:45;17.20;99.90
18876;DHT22;9570;50.854;13.778;2023-09-19T03:01:11;17.20;99.90
18876;DHT22;9570;50.854;13.778;2023-09-19T03:03:43;17.30;99.90
18876;DHT22;9570;50.854;13.778;2023-09-19T03:06:10;17.20;99.90
18876;DHT22;9570;50.854;13.778;2023-09-19T03:08:38;17.20;99.90
18876;DHT22;9570;50.854;13.778;2023-09-19T03:11:13;17.20;99.90
18876;DHT22;9570;50.854;13.778;2023-09-19T03:13:40;17.20;99.90
18876;DHT22;9570;50.854;13.778;2023-09-19T03:16:07;17.20;99.90
18876;DHT22;9570;50.854;13.778;2023-09-19T03:18:36;17.20;99.90
18876;DHT22;9570;50.854;13.778;2023-09-19T03:21:02;17.20;99.90
18876;DHT22;9570;50.854;13.778;2023-09-19T03:23:28;17.20;99.90
18876;DHT22;9570;50.854;13.778;2023-09-19T03:25:54;17.30;99.90
18876;DHT22;9570;50.854;13.778;2023-09-19T03:28:21;17.40;99.90
18876;DHT22;9570;50.854;13.778;2023-09-19T03:31:06;17.30;99.90
18876;DHT22;9570;50.854;13.778;2023-09-19T03:33:32;17.20;99.90
18876;DHT22;9570;50.854;13.778;2023-09-19T03:35:59;17.30;99.90
18876;DHT22;9570;50.854;13.778;2023-09-19T03:38:26;17.30;99.90
18876;DHT22;9570;50.854;13.778;2023-09-19T03:40:52;17.20;99.90
18876;DHT22;9570;50.854;13.778;2023-09-19T03:43:18;17.20;99.90
18876;DHT22;9570;50.854;13.778;2023-09-19T03:45:44;17.20;99.90
18876;DHT22;9570;50.854;13.778;2023-09-19T03:48:10;17.20;99.90
18876;DHT22;9570;50.854;13.778;2023-09-19T03:50:36;17.30;99.90
18876;DHT22;9570;50.854;13.778;2023-09-19T03:53:02;17.20;99.90
18876;DHT22;9570;50.854;13.778;2023-09-19T03:55:27;17.30;99.90
18876;DHT22;9570;50.854;13.778;2023-09-19T03:57:53;17.30;99.90
18876;DHT22;9570;50.854;13.778;2023-09-19T04:00:19;17.40;99.90
18876;DHT22;9570;50.854;13.778;2023-09-19T04:02:47;17.40;99.90
18876;DHT22;9570;50.854;13.778;2023-09-19T04:05:13;17.40;99.90
18876;DHT22;9570;50.854;13.778;2023-09-19T04:07:38;17.30;99.90
18876;DHT22;9570;50.854;13.778;2023-09-19T04:10:04;17.30;99.90
18876;DHT22;9570;50.854;13.778;2023-09-19T04:12:31;17.30;99.90
18876;DHT22;9570;50.854;13.778;2023-09-19T04:14:57;17.20;99.90
18876;DHT22;9570;50.854;13.778;2023-09-19T04:17:23;17.20;99.90
18876;DHT22;9570;50.854;13.778;2023-09-19T04:19:48;17.30;99.90
18876;DHT22;9570;50.854;13.778;2023-09-19T04:22:14;17.30;99.90
18876;DHT22;9570;50.854;13.778;2023-09-19T04:24:39;17.30;99.90
18876;DHT22;9570;50.854;13.778;2023-09-19T04:27:05;17.30;99.90
18876;DHT22;9570;50.854;13.778;2023-09-19T04:29:31;17.20;99.90
18876;DHT22;9570;50.854;13.778;2023-09-19T04:31:57;17.10;99.90
18876;DHT22;9570;50.854;13.778;2023-09-19T04:34:22;17.20;99.90
18876;DHT22;9570;50.854;13.778;2023-09-19T04:36:49;17.30;99.90
18876;DHT22;9570;50.854;13.778;2023-09-19T04:39:15;17.30;99.90
18876;DHT22;9570;50.854;13.778;2023-09-19T04:41:42;17.30;99.90
18876;DHT22;9570;50.854;13.778;2023-09-19T04:44:07;17.10;99.90
18876;DHT22;9570;50.854;13.778;2023-09-19T04:46:34;17.00;99.90
18876;DHT22;9570;50.854;13.778;2023-09-19T04:49:00;17.00;99.90
18876;DHT22;9570;50.854;13.778;2023-09-19T04:51:26;17.10;99.90
18876;DHT22;9570;50.854;13.778;2023-09-19T04:53:54;17.10;99.90
18876;DHT22;9570;50.854;13.778;2023-09-19T04:56:20;17.10;99.90
18876;DHT22;9570;50.854;13.778;2023-09-19T04:58:46;17.20;99.90
18876;DHT22;9570;50.854;13.778;2023-09-19T05:01:11;17.20;99.90
18876;DHT22;9570;50.854;13.778;2023-09-19T05:03:39;17.20;99.90
18876;DHT22;9570;50.854;13.778;2023-09-19T05:06:05;17.20;99.90
18876;DHT22;9570;50.854;13.778;2023-09-19T05:08:30;17.10;99.90
18876;DHT22;9570;50.854;13.778;2023-09-19T05:10:56;17.10;99.90
18876;DHT22;9570;50.854;13.778;2023-09-19T05:13:22;17.20;99.90
18876;DHT22;9570;50.854;13.778;2023-09-19T05:15:49;17.20;99.90
18876;DHT22;9570;50.854;13.778;2023-09-19T05:18:15;17.20;99.90
18876;DHT22;9570;50.854;13.778;2023-09-19T05:20:41;17.20;99.90
18876;DHT22;9570;50.854;13.778;2023-09-19T05:23:07;17.20;99.90
18876;DHT22;9570;50.854;13.778;2023-09-19T05:25:35;17.10;99.90
18876;DHT22;9570;50.854;13.778;2023-09-19T05:28:08;17.10;99.90
18876;DHT22;9570;50.854;13.778;2023-09-19T05:30:35;17.10;99.90
18876;DHT22;9570;50.854;13.778;2023-09-19T05:33:08;17.00;99.90
18876;DHT22;9570;50.854;13.778;2023-09-19T05:35:35;17.00;99.90
18876;DHT22;9570;50.854;13.778;2023-09-19T05:38:05;17.00;99.90
18876;DHT22;9570;50.854;13.778;2023-09-19T05:40:35;17.00;99.90
18876;DHT22;9570;50.854;13.778;2023-09-19T05:43:01;17.00;99.90
18876;DHT22;9570;50.854;13.778;2023-09-19T05:45:27;16.90;99.90
18876;DHT22;9570;50.854;13.778;2023-09-19T05:47:53;17.00;99.90
18876;DHT22;9570;50.854;13.778;2023-09-19T05:50:29;17.00;99.90
18876;DHT22;9570;50.854;13.778;2023-09-19T05:52:55;17.10;99.90
18876;DHT22;9570;50.854;13.778;2023-09-19T05:55:23;17.10;99.90
18876;DHT22;9570;50.854;13.778;2023-09-19T05:57:54;17.20;99.90
18876;DHT22;9570;50.854;13.778;2023-09-19T06:00:20;17.20;99.90
18876;DHT22;9570;50.854;13.778;2023-09-19T06:02:51;17.30;99.90
18876;DHT22;9570;50.854;13.778;2023-09-19T06:05:17;17.40;99.90
18876;DHT22;9570;50.854;13.778;2023-09-19T06:07:43;17.30;99.90
18876;DHT22;9570;50.854;13.778;2023-09-19T06:10:09;17.40;99.90
18876;DHT22;9570;50.854;13.778;2023-09-19T06:12:39;17.50;99.90
18876;DHT22;9570;50.854;13.778;2023-09-19T06:15:05;17.40;99.90
18876;DHT22;9570;50.854;13.778;2023-09-19T06:17:31;17.40;99.90
18876;DHT22;9570;50.854;13.778;2023-09-19T06:19:57;17.40;99.90
18876;DHT22;9570;50.854;13.778;2023-09-19T06:22:23;17.30;99.90
18876;DHT22;9570;50.854;13.778;2023-09-19T06:24:49;17.40;99.90
18876;DHT22;9570;50.854;13.778;2023-09-19T06:27:15;17.30;99.90
18876;DHT22;9570;50.854;13.778;2023-09-19T06:29:40;17.30;99.90
18876;DHT22;9570;50.854;13.778;2023-09-19T06:32:08;17.40;99.90
18876;DHT22;9570;50.854;13.778;2023-09-19T06:34:34;17.40;99.90
18876;DHT22;9570;50.854;13.778;2023-09-19T06:36:59;17.50;99.90
18876;DHT22;9570;50.854;13.778;2023-09-19T06:39:25;17.80;99.90
18876;DHT22;9570;50.854;13.778;2023-09-19T06:41:51;17.90;99.90
18876;DHT22;9570;50.854;13.778;2023-09-19T06:44:19;18.00;99.90
18876;DHT22;9570;50.854;13.778;2023-09-19T06:46:47;18.10;99.90
18876;DHT22;9570;50.854;13.778;2023-09-19T06:49:15;18.00;99.90
18876;DHT22;9570;50.854;13.778;2023-09-19T06:51:41;18.00;99.90
18876;DHT22;9570;50.854;13.778;2023-09-19T06:54:07;18.10;99.90
18876;DHT22;9570;50.854;13.778;2023-09-19T06:56:32;18.40;99.90
18876;DHT22;9570;50.854;13.778;2023-09-19T06:58:58;18.70;99.90
18876;DHT22;9570;50.854;13.778;2023-09-19T07:01:23;18.90;99.90
18876;DHT22;9570;50.854;13.778;2023-09-19T07:03:50;18.90;99.90
18876;DHT22;9570;50.854;13.778;2023-09-19T07:06:16;18.90;99.90
18876;DHT22;9570;50.854;13.778;2023-09-19T07:08:41;18.90;99.90
18876;DHT22;9570;50.854;13.778;2023-09-19T07:11:07;18.70;99.90
18876;DHT22;9570;50.854;13.778;2023-09-19T07:13:32;18.70;99.90
18876;DHT22;9570;50.854;13.778;2023-09-19T07:15:58;18.50;99.90
18876;DHT22;9570;50.854;13.778;2023-09-19T07:18:24;18.40;99.90
18876;DHT22;9570;50.854;13.778;2023-09-19T07:20:50;18.40;99.90
18876;DHT22;9570;50.854;13.778;2023-09-19T07:23:17;18.40;99.90
18876;DHT22;9570;50.854;13.778;2023-09-19T07:25:43;18.30;99.90
18876;DHT22;9570;50.854;13.778;2023-09-19T07:28:09;18.20;99.90
18876;DHT22;9570;50.854;13.778;2023-09-19T07:30:36;18.30;99.90
18876;DHT22;9570;50.854;13.778;2023-09-19T07:33:06;18.50;99.90
18876;DHT22;9570;50.854;13.778;2023-09-19T07:35:32;18.30;99.90
18876;DHT22;9570;50.854;13.778;2023-09-19T07:37:58;18.30;99.90
18876;DHT22;9570;50.854;13.778;2023-09-19T07:40:27;18.50;99.90
18876;DHT22;9570;50.854;13.778;2023-09-19T07:42:55;18.60;99.90
18876;DHT22;9570;50.854;13.778;2023-09-19T07:45:20;18.60;99.90
18876;DHT22;9570;50.854;13.778;2023-09-19T07:47:46;18.50;99.90
18876;DHT22;9570;50.854;13.778;2023-09-19T07:50:13;18.60;99.90
18876;DHT22;9570;50.854;13.778;2023-09-19T07:52:38;18.80;99.90
18876;DHT22;9570;50.854;13.778;2023-09-19T07:55:08;18.90;99.90
18876;DHT22;9570;50.854;13.778;2023-09-19T07:57:37;19.20;99.90
18876;DHT22;9570;50.854;13.778;2023-09-19T08:00:03;19.40;99.90
18876;DHT22;9570;50.854;13.778;2023-09-19T08:02:36;19.90;99.90
18876;DHT22;9570;50.854;13.778;2023-09-19T08:05:06;20.30;99.90
18876;DHT22;9570;50.854;13.778;2023-09-19T08:07:32;20.00;99.90
18876;DHT22;9570;50.854;13.778;2023-09-19T08:09:58;19.70;99.90
18876;DHT22;9570;50.854;13.778;2023-09-19T08:12:24;19.70;99.90
18876;DHT22;9570;50.854;13.778;2023-09-19T08:14:50;19.70;99.90
18876;DHT22;9570;50.854;13.778;2023-09-19T08:17:16;19.90;99.90
18876;DHT22;9570;50.854;13.778;2023-09-19T08:19:41;20.30;99.90
18876;DHT22;9570;50.854;13.778;2023-09-19T08:22:10;20.60;99.90
18876;DHT22;9570;50.854;13.778;2023-09-19T08:24:36;21.10;99.90
18876;DHT22;9570;50.854;13.778;2023-09-19T08:27:03;21.50;99.90
18876;DHT22;9570;50.854;13.778;2023-09-19T08:29:30;21.20;99.90
18876;DHT22;9570;50.854;13.778;2023-09-19T08:31:57;20.70;99.90
18876;DHT22;9570;50.854;13.778;2023-09-19T08:34:23;20.50;99.90
18876;DHT22;9570;50.854;13.778;2023-09-19T08:36:54;20.70;99.90
18876;DHT22;9570;50.854;13.778;2023-09-19T08:39:23;21.10;99.90
18876;DHT22;9570;50.854;13.778;2023-09-19T08:41:49;21.40;99.90
18876;DHT22;9570;50.854;13.778;2023-09-19T08:44:15;21.80;99.90
18876;DHT22;9570;50.854;13.778;2023-09-19T08:46:42;21.90;99.90
18876;DHT22;9570;50.854;13.778;2023-09-19T08:49:19;22.00;99.90
18876;DHT22;9570;50.854;13.778;2023-09-19T08:51:55;21.80;99.90
18876;DHT22;9570;50.854;13.778;2023-09-19T08:54:25;21.70;99.90
18876;DHT22;9570;50.854;13.778;2023-09-19T08:56:54;21.40;99.90
18876;DHT22;9570;50.854;13.778;2023-09-19T08:59:22;21.10;99.90
18876;DHT22;9570;50.854;13.778;2023-09-19T09:01:53;21.00;99.90
18876;DHT22;9570;50.854;13.778;2023-09-19T09:04:22;21.00;99.90
18876;DHT22;9570;50.854;13.778;2023-09-19T09:06:47;20.70;99.90
18876;DHT22;9570;50.854;13.778;2023-09-19T09:09:16;20.40;99.90
18876;DHT22;9570;50.854;13.778;2023-09-19T09:11:42;20.30;99.90
18876;DHT22;9570;50.854;13.778;2023-09-19T09:14:07;20.10;99.90
18876;DHT22;9570;50.854;13.778;2023-09-19T09:16:33;20.00;99.90
18876;DHT22;9570;50.854;13.778;2023-09-19T09:18:59;20.00;99.90
18876;DHT22;9570;50.854;13.778;2023-09-19T09:21:26;19.90;99.90
18876;DHT22;9570;50.854;13.778;2023-09-19T09:23:52;19.90;99.90
18876;DHT22;9570;50.854;13.778;2023-09-19T09:29:04;20.00;99.90
18876;DHT22;9570;50.854;13.778;2023-09-19T09:31:29;20.30;99.90
18876;DHT22;9570;50.854;13.778;2023-09-19T09:33:55;20.50;99.90
18876;DHT22;9570;50.854;13.778;2023-09-19T09:36:34;20.50;99.90
18876;DHT22;9570;50.854;13.778;2023-09-19T09:39:00;20.60;99.90
18876;DHT22;9570;50.854;13.778;2023-09-19T09:41:41;20.50;99.90
18876;DHT22;9570;50.854;13.778;2023-09-19T09:44:17;20.30;99.90
18876;DHT22;9570;50.854;13.778;2023-09-19T09:46:47;20.60;99.90
18876;DHT22;9570;50.854;13.778;2023-09-19T09:49:25;21.00;99.90
18876;DHT22;9570;50.854;13.778;2023-09-19T09:52:03;20.90;99.90
18876;DHT22;9570;50.854;13.778;2023-09-19T09:55:04;21.00;99.90
18876;DHT22;9570;50.854;13.778;2023-09-19T09:57:34;21.30;99.90
18876;DHT22;9570;50.854;13.778;2023-09-19T10:00:00;21.40;99.90
18876;DHT22;9570;50.854;13.778;2023-09-19T10:02:38;21.30;99.90
18876;DHT22;9570;50.854;13.778;2023-09-19T10:05:19;21.50;99.90
18876;DHT22;9570;50.854;13.778;2023-09-19T10:07:51;21.40;99.90
18876;DHT22;9570;50.854;13.778;2023-09-19T10:10:38;21.50;99.90
18876;DHT22;9570;50.854;13.778;2023-09-19T10:13:10;21.20;99.90
18876;DHT22;9570;50.854;13.778;2023-09-19T10:15:49;20.80;99.90
18876;DHT22;9570;50.854;13.778;2023-09-19T10:18:22;20.60;99.90
18876;DHT22;9570;50.854;13.778;2023-09-19T10:20:48;20.50;99.90
18876;DHT22;9570;50.854;13.778;2023-09-19T10:23:21;20.40;99.90
18876;DHT22;9570;50.854;13.778;2023-09-19T10:25:52;20.50;99.90
18876;DHT22;9570;50.854;13.778;2023-09-19T10:28:18;20.50;99.90
18876;DHT22;9570;50.854;13.778;2023-09-19T10:30:48;20.50;99.90
18876;DHT22;9570;50.854;13.778;2023-09-19T10:33:17;20.60;99.90
18876;DHT22;9570;50.854;13.778;2023-09-19T10:35:47;20.50;99.90
18876;DHT22;9570;50.854;13.778;2023-09-19T10:38:15;20.60;99.90
18876;DHT22;9570;50.854;13.778;2023-09-19T10:40:42;20.80;99.90
18876;DHT22;9570;50.854;13.778;2023-09-19T10:43:16;21.00;99.90
18876;DHT22;9570;50.854;13.778;2023-09-19T10:45:48;21.20;99.90
18876;DHT22;9570;50.854;13.778;2023-09-19T10:48:19;21.50;99.90
18876;DHT22;9570;50.854;13.778;2023-09-19T10:54:01;21.60;99.90
18876;DHT22;9570;50.854;13.778;2023-09-19T10:56:36;21.70;99.90
18876;DHT22;9570;50.854;13.778;2023-09-19T10:59:07;21.70;99.90
18876;DHT22;9570;50.854;13.778;2023-09-19T11:01:47;21.80;99.90
18876;DHT22;9570;50.854;13.778;2023-09-19T11:04:34;21.90;99.90
18876;DHT22;9570;50.854;13.778;2023-09-19T11:07:08;21.80;99.90
18876;DHT22;9570;50.854;13.778;2023-09-19T11:09:55;21.60;99.90
18876;DHT22;9570;50.854;13.778;2023-09-19T11:15:01;21.90;99.90
18876;DHT22;9570;50.854;13.778;2023-09-19T11:17:42;21.90;99.90
18876;DHT22;9570;50.854;13.778;2023-09-19T11:30:45;21.70;99.90
18876;DHT22;9570;50.854;13.778;2023-09-19T11:33:27;21.90;99.90
18876;DHT22;9570;50.854;13.778;2023-09-19T11:49:16;21.70;99.90
18876;DHT22;9570;50.854;13.778;2023-09-19T11:51:50;21.50;99.90
18876;DHT22;9570;50.854;13.778;2023-09-19T11:54:17;21.30;99.90
18876;DHT22;9570;50.854;13.778;2023-09-19T11:56:51;21.40;99.90
18876;DHT22;9570;50.854;13.778;2023-09-19T11:59:32;21.50;99.90
18876;DHT22;9570;50.854;13.778;2023-09-19T12:02:04;21.90;99.90
18876;DHT22;9570;50.854;13.778;2023-09-19T12:07:10;21.90;99.90
18876;DHT22;9570;50.854;13.778;2023-09-19T12:09:41;21.90;99.90
18876;DHT22;9570;50.854;13.778;2023-09-19T12:12:10;21.70;99.90
18876;DHT22;9570;50.854;13.778;2023-09-19T12:14:38;21.70;99.90
18876;DHT22;9570;50.854;13.778;2023-09-19T12:17:04;21.60;99.90
18876;DHT22;9570;50.854;13.778;2023-09-19T12:19:30;21.50;99.90
18876;DHT22;9570;50.854;13.778;2023-09-19T12:21:56;21.50;99.90
18876;DHT22;9570;50.854;13.778;2023-09-19T12:24:24;21.70;99.90
18876;DHT22;9570;50.854;13.778;2023-09-19T12:26:52;21.80;99.90
18876;DHT22;9570;50.854;13.778;2023-09-19T12:29:19;21.90;99.90
18876;DHT22;9570;50.854;13.778;2023-09-19T12:31:51;21.80;99.90
18876;DHT22;9570;50.854;13.778;2023-09-19T12:34:22;21.70;99.90
18876;DHT22;9570;50.854;13.778;2023-09-19T12:36:48;21.70;99.90
18876;DHT22;9570;50.854;13.778;2023-09-19T12:39:23;21.80;99.90
18876;DHT22;9570;50.854;13.778;2023-09-19T12:41:55;21.70;99.90
18876;DHT22;9570;50.854;13.778;2023-09-19T12:44:20;21.50;99.90
18876;DHT22;9570;50.854;13.778;2023-09-19T12:46:46;21.40;99.90
18876;DHT22;9570;50.854;13.778;2023-09-19T12:49:16;21.30;99.90
18876;DHT22;9570;50.854;13.778;2023-09-19T12:51:43;21.50;99.90
18876;DHT22;9570;50.854;13.778;2023-09-19T12:54:09;21.50;99.90
18876;DHT22;9570;50.854;13.778;2023-09-19T12:56:43;21.60;99.90
18876;DHT22;9570;50.854;13.778;2023-09-19T12:59:14;21.80;99.90
18876;DHT22;9570;50.854;13.778;2023-09-19T13:01:41;21.70;99.90
18876;DHT22;9570;50.854;13.778;2023-09-19T13:04:20;21.50;99.90
18876;DHT22;9570;50.854;13.778;2023-09-19T13:06:52;21.30;99.90
18876;DHT22;9570;50.854;13.778;2023-09-19T13:09:19;21.30;99.90
18876;DHT22;9570;50.854;13.778;2023-09-19T13:11:46;21.20;99.90
18876;DHT22;9570;50.854;13.778;2023-09-19T13:14:27;21.10;99.90
18876;DHT22;9570;50.854;13.778;2023-09-19T13:17:00;21.10;99.90
18876;DHT22;9570;50.854;13.778;2023-09-19T13:19:43;21.30;99.90
18876;DHT22;9570;50.854;13.778;2023-09-19T13:22:39;21.40;99.90
18876;DHT22;9570;50.854;13.778;2023-09-19T13:25:09;21.50;99.90
18876;DHT22;9570;50.854;13.778;2023-09-19T13:27:40;21.50;99.90
18876;DHT22;9570;50.854;13.778;2023-09-19T13:30:06;21.50;99.90
18876;DHT22;9570;50.854;13.778;2023-09-19T13:32:32;21.50;99.90
18876;DHT22;9570;50.854;13.778;2023-09-19T13:34:59;21.50;99.90
18876;DHT22;9570;50.854;13.778;2023-09-19T13:37:24;21.50;99.90
18876;DHT22;9570;50.854;13.778;2023-09-19T13:39:51;21.50;99.90
18876;DHT22;9570;50.854;13.778;2023-09-19T13:42:17;21.50;99.90
18876;DHT22;9570;50.854;13.778;2023-09-19T13:44:44;21.40;99.90
18876;DHT22;9570;50.854;13.778;2023-09-19T13:47:09;21.30;99.90
18876;DHT22;9570;50.854;13.778;2023-09-19T13:49:36;21.30;99.90
18876;DHT22;9570;50.854;13.778;2023-09-19T13:52:02;21.30;99.90
18876;DHT22;9570;50.854;13.778;2023-09-19T13:54:31;21.20;99.90
18876;DHT22;9570;50.854;13.778;2023-09-19T13:56:56;21.30;99.90
18876;DHT22;9570;50.854;13.778;2023-09-19T13:59:22;21.20;99.90
18876;DHT22;9570;50.854;13.778;2023-09-19T14:01:49;21.10;99.90
18876;DHT22;9570;50.854;13.778;2023-09-19T14:04:15;21.00;99.90
18876;DHT22;9570;50.854;13.778;2023-09-19T14:06:42;21.00;99.90
18876;DHT22;9570;50.854;13.778;2023-09-19T14:09:08;21.10;99.90
18876;DHT22;9570;50.854;13.778;2023-09-19T14:11:36;21.20;99.90
18876;DHT22;9570;50.854;13.778;2023-09-19T14:14:01;21.10;99.90
18876;DHT22;9570;50.854;13.778;2023-09-19T14:16:27;21.10;99.90
18876;DHT22;9570;50.854;13.778;2023-09-19T14:18:56;21.10;99.90
18876;DHT22;9570;50.854;13.778;2023-09-19T14:21:22;21.10;99.90
18876;DHT22;9570;50.854;13.778;2023-09-19T14:23:48;20.90;99.90
18876;DHT22;9570;50.854;13.778;2023-09-19T14:26:14;21.00;99.90
18876;DHT22;9570;50.854;13.778;2023-09-19T14:28:41;21.00;99.90
18876;DHT22;9570;50.854;13.778;2023-09-19T14:31:11;21.00;99.90
18876;DHT22;9570;50.854;13.778;2023-09-19T14:33:37;21.00;99.90
18876;DHT22;9570;50.854;13.778;2023-09-19T14:36:08;20.90;99.90
18876;DHT22;9570;50.854;13.778;2023-09-19T14:38:35;20.80;99.90
18876;DHT22;9570;50.854;13.778;2023-09-19T14:41:01;20.70;99.90
18876;DHT22;9570;50.854;13.778;2023-09-19T14:43:27;20.70;99.90
18876;DHT22;9570;50.854;13.778;2023-09-19T14:46:02;20.70;99.90
18876;DHT22;9570;50.854;13.778;2023-09-19T14:48:28;20.80;99.90
18876;DHT22;9570;50.854;13.778;2023-09-19T14:50:53;20.90;99.90
18876;DHT22;9570;50.854;13.778;2023-09-19T14:53:20;20.90;99.90
18876;DHT22;9570;50.854;13.778;2023-09-19T14:55:46;20.90;99.90
18876;DHT22;9570;50.854;13.778;2023-09-19T14:58:13;20.80;99.90
18876;DHT22;9570;50.854;13.778;2023-09-19T15:00:39;20.80;99.90
18876;DHT22;9570;50.854;13.778;2023-09-19T15:03:04;21.00;99.90
18876;DHT22;9570;50.854;13.778;2023-09-19T15:05:31;21.00;99.90
18876;DHT22;9570;50.854;13.778;2023-09-19T15:07:56;20.90;99.90
18876;DHT22;9570;50.854;13.778;2023-09-19T15:10:22;20.90;99.90
18876;DHT22;9570;50.854;13.778;2023-09-19T15:12:48;20.90;99.90
18876;DHT22;9570;50.854;13.778;2023-09-19T15:15:14;20.90;99.90
18876;DHT22;9570;50.854;13.778;2023-09-19T15:17:39;20.80;99.90
18876;DHT22;9570;50.854;13.778;2023-09-19T15:20:06;20.80;99.90
18876;DHT22;9570;50.854;13.778;2023-09-19T15:22:35;20.70;99.90
18876;DHT22;9570;50.854;13.778;2023-09-19T15:25:02;20.70;99.90
18876;DHT22;9570;50.854;13.778;2023-09-19T15:27:28;20.60;99.90
18876;DHT22;9570;50.854;13.778;2023-09-19T15:29:59;20.60;99.90
18876;DHT22;9570;50.854;13.778;2023-09-19T15:32:25;20.60;99.90
18876;DHT22;9570;50.854;13.778;2023-09-19T15:34:51;20.60;99.90
18876;DHT22;9570;50.854;13.778;2023-09-19T15:37:16;20.60;99.90
18876;DHT22;9570;50.854;13.778;2023-09-19T15:39:42;20.60;99.90
18876;DHT22;9570;50.854;13.778;2023-09-19T15:42:10;20.50;99.90
18876;DHT22;9570;50.854;13.778;2023-09-19T15:44:36;20.50;99.90
18876;DHT22;9570;50.854;13.778;2023-09-19T15:47:03;20.50;99.90
18876;DHT22;9570;50.854;13.778;2023-09-19T15:49:28;20.40;99.90
18876;DHT22;9570;50.854;13.778;2023-09-19T15:51:54;20.50;99.90
18876;DHT22;9570;50.854;13.778;2023-09-19T15:54:20;20.50;99.90
18876;DHT22;9570;50.854;13.778;2023-09-19T15:56:46;20.50;99.90
18876;DHT22;9570;50.854;13.778;2023-09-19T15:59:16;20.40;99.90
18876;DHT22;9570;50.854;13.778;2023-09-19T16:01:44;20.40;99.90
18876;DHT22;9570;50.854;13.778;2023-09-19T16:04:10;20.50;99.90
18876;DHT22;9570;50.854;13.778;2023-09-19T16:06:37;20.50;99.90
18876;DHT22;9570;50.854;13.778;2023-09-19T16:09:04;20.40;99.90
18876;DHT22;9570;50.854;13.778;2023-09-19T16:11:34;20.30;99.90
18876;DHT22;9570;50.854;13.778;2023-09-19T16:14:01;20.00;99.90
18876;DHT22;9570;50.854;13.778;2023-09-19T16:16:27;19.90;99.90